Time;durP1;ratioP1;P1;durP2;ratioP2;P2;SDS_P1;SDS_P2;PMS_P1;PMS_P2;Temp;Humidity;BMP_temperature;BMP_pressure;BME280_temperature;BME280_humidity;BME280_pressure;Samples;Min_cycle;Max_cycle;Signal;HPM_P1;HPM_P2
2022/12/14 00:01:16;;;;;;;60.65;35.15;;;;;;;;;;5007369;28;20563;-69
2022/12/14 00:03:43;;;;;;;63.97;36.28;;;;;;;;;;4996586;28;20409;-69
2022/12/14 00:06:14;;;;;;;61.92;36.10;;;;;;;;;;5006965;28;20431;-70
2022/12/14 00:08:41;;;;;;;61.13;34.85;;;;;;;;;;5007480;28;20966;-70
2022/12/14 00:11:07;;;;;;;60.67;34.40;;;;;;;;;;5020735;28;20414;-70
2022/12/14 00:13:33;;;;;;;63.53;34.78;;;;;;;;;;4999674;28;20996;-70
2022/12/14 00:16:03;;;;;;;62.47;35.10;;;;;;;;;;5008899;28;20427;-70
2022/12/14 00:18:29;;;;;;;60.72;33.63;;;;;;;;;;4988212;28;20475;-68
2022/12/14 00:21:01;;;;;;;60.67;34.03;;;;;;;;;;4992957;28;20490;-68
2022/12/14 00:23:28;;;;;;;317.80;59.97;;;;;;;;;;4984885;28;20447;-68
2022/12/14 00:25:54;;;;;;;65.25;35.85;;;;;;;;;;5013406;28;21155;-69
2022/12/14 00:28:20;;;;;;;61.97;34.67;;;;;;;;;;4998486;28;20453;-69
2022/12/14 00:30:46;;;;;;;60.05;34.75;;;;;;;;;;4995721;28;20437;-69
2022/12/14 00:33:12;;;;;;;62.67;35.47;;;;;;;;;;5031142;28;20418;-69
2022/12/14 00:35:38;;;;;;;62.50;36.33;;;;;;;;;;5004050;28;20503;-69
2022/12/14 00:38:04;;;;;;;63.83;35.85;;;;;;;;;;5004532;28;20472;-69
2022/12/14 00:40:30;;;;;;;59.67;35.10;;;;;;;;;;5030292;28;20492;-69
2022/12/14 00:42:56;;;;;;;65.60;34.97;;;;;;;;;;5010140;28;20429;-70
2022/12/14 00:45:22;;;;;;;62.35;34.83;;;;;;;;;;4989180;28;20417;-70
2022/12/14 00:47:48;;;;;;;109.18;40.40;;;;;;;;;;5005895;28;20423;-70
2022/12/14 00:50:14;;;;;;;63.38;35.42;;;;;;;;;;5009392;28;20469;-70
2022/12/14 00:52:40;;;;;;;56.90;31.85;;;;;;;;;;5015304;28;20415;-69
2022/12/14 00:55:06;;;;;;;60.00;33.42;;;;;;;;;;4998029;28;20542;-68
2022/12/14 00:57:32;;;;;;;55.92;32.10;;;;;;;;;;5012620;28;20532;-69
2022/12/14 00:59:58;;;;;;;54.47;30.93;;;;;;;;;;4991065;28;20432;-70
2022/12/14 01:02:24;;;;;;;54.20;31.65;;;;;;;;;;4979031;28;20459;-69
2022/12/14 01:04:50;;;;;;;56.20;32.20;;;;;;;;;;5007777;28;20426;-69
2022/12/14 01:07:17;;;;;;;54.00;31.00;;;;;;;;;;5012920;28;20737;-69
2022/12/14 01:09:43;;;;;;;56.57;32.03;;;;;;;;;;4982513;28;21065;-69
2022/12/14 01:12:09;;;;;;;54.83;30.70;;;;;;;;;;5014047;28;20422;-69
2022/12/14 01:14:35;;;;;;;54.00;30.48;;;;;;;;;;4998104;28;20823;-69
2022/12/14 01:17:01;;;;;;;54.08;30.13;;;;;;;;;;4975347;28;20431;-69
2022/12/14 01:19:27;;;;;;;54.42;30.42;;;;;;;;;;4989315;28;20427;-70
2022/12/14 01:21:53;;;;;;;55.95;30.35;;;;;;;;;;5013817;28;20427;-69
2022/12/14 01:24:19;;;;;;;56.60;31.10;;;;;;;;;;5027622;28;20438;-69
2022/12/14 01:26:45;;;;;;;55.25;31.15;;;;;;;;;;4994540;28;20937;-70
2022/12/14 01:29:11;;;;;;;56.03;32.97;;;;;;;;;;4982454;28;20429;-70
2022/12/14 01:31:37;;;;;;;56.97;30.48;;;;;;;;;;5002217;28;20432;-68
2022/12/14 01:34:05;;;;;;;56.72;31.27;;;;;;;;;;4998516;28;20423;-69
2022/12/14 01:36:32;;;;;;;57.15;31.65;;;;;;;;;;4995374;28;20463;-69
2022/12/14 01:38:59;;;;;;;58.35;33.17;;;;;;;;;;4994721;28;20419;-69
2022/12/14 01:41:30;;;;;;;61.10;33.28;;;;;;;;;;5011323;28;20759;-69
2022/12/14 01:43:57;;;;;;;61.28;33.70;;;;;;;;;;4992225;28;20962;-69
2022/12/14 01:46:35;;;;;;;63.30;33.80;;;;;;;;;;5011838;28;20412;-69
2022/12/14 01:49:05;;;;;;;59.80;33.30;;;;;;;;;;4992881;28;25094;-69
2022/12/14 01:51:31;;;;;;;59.20;33.22;;;;;;;;;;5003469;28;20806;-69
2022/12/14 01:53:59;;;;;;;59.17;32.08;;;;;;;;;;4994911;28;20401;-69
2022/12/14 01:56:25;;;;;;;58.33;32.03;;;;;;;;;;4998944;28;20451;-69
2022/12/14 01:58:51;;;;;;;58.33;32.63;;;;;;;;;;4995194;28;20450;-69
2022/12/14 02:01:17;;;;;;;62.20;32.55;;;;;;;;;;5010709;28;20434;-69
2022/12/14 02:03:46;;;;;;;57.53;32.40;;;;;;;;;;4978137;28;20456;-69
2022/12/14 02:06:15;;;;;;;61.35;33.05;;;;;;;;;;4998372;28;20976;-69
2022/12/14 02:08:43;;;;;;;60.33;32.63;;;;;;;;;;5007641;28;20433;-69
2022/12/14 02:11:09;;;;;;;62.15;33.45;;;;;;;;;;5001192;28;21061;-69
2022/12/14 02:13:38;;;;;;;60.80;32.72;;;;;;;;;;4997022;28;20422;-69
2022/12/14 02:16:04;;;;;;;57.08;31.95;;;;;;;;;;5021422;28;20429;-70
2022/12/14 02:18:31;;;;;;;59.60;32.95;;;;;;;;;;5006000;28;20783;-69
2022/12/14 02:21:04;;;;;;;62.53;33.45;;;;;;;;;;5010784;28;20749;-69
2022/12/14 02:23:42;;;;;;;59.30;32.15;;;;;;;;;;5012837;28;20530;-70
2022/12/14 02:26:08;;;;;;;58.37;31.90;;;;;;;;;;5029529;28;25113;-70
2022/12/14 02:28:50;;;;;;;57.05;31.27;;;;;;;;;;5005075;28;20411;-70
2022/12/14 02:31:16;;;;;;;71.93;34.17;;;;;;;;;;5012999;28;20751;-69
2022/12/14 02:33:51;;;;;;;64.60;34.65;;;;;;;;;;5014026;28;20410;-70
2022/12/14 02:36:26;;;;;;;65.05;34.53;;;;;;;;;;5011515;28;25122;-69
2022/12/14 02:39:10;;;;;;;62.50;34.73;;;;;;;;;;5023673;28;25093;-69
2022/12/14 02:41:40;;;;;;;71.22;35.65;;;;;;;;;;5003217;28;25103;-69
2022/12/14 02:44:13;;;;;;;67.80;35.83;;;;;;;;;;5007864;28;20412;-70
2022/12/14 02:47:01;;;;;;;66.67;33.97;;;;;;;;;;4994062;28;20443;-70
2022/12/14 02:49:52;;;;;;;61.25;33.63;;;;;;;;;;5004585;28;25117;-69
2022/12/14 02:52:30;;;;;;;60.85;33.60;;;;;;;;;;4992317;28;25155;-70
2022/12/14 02:55:17;;;;;;;58.83;31.77;;;;;;;;;;5007761;28;25136;-70
2022/12/14 02:57:43;;;;;;;62.40;33.65;;;;;;;;;;4988474;28;20994;-71
2022/12/14 03:00:10;;;;;;;66.53;35.05;;;;;;;;;;5013782;28;20423;-70
2022/12/14 03:02:38;;;;;;;65.80;33.78;;;;;;;;;;5011528;28;20498;-69
2022/12/14 03:05:04;;;;;;;61.27;32.23;;;;;;;;;;5011410;28;20427;-69
2022/12/14 03:07:33;;;;;;;56.53;31.85;;;;;;;;;;4992809;28;20433;-69
2022/12/14 03:10:01;;;;;;;58.47;31.83;;;;;;;;;;5012831;28;20441;-70
2022/12/14 03:12:27;;;;;;;59.30;31.42;;;;;;;;;;4995081;28;20430;-69
2022/12/14 03:14:54;;;;;;;57.72;32.17;;;;;;;;;;5012779;28;20403;-69
2022/12/14 03:17:23;;;;;;;59.28;32.40;;;;;;;;;;5011105;28;20496;-69
2022/12/14 03:19:57;;;;;;;58.20;31.63;;;;;;;;;;4996386;28;20456;-69
2022/12/14 03:22:25;;;;;;;59.47;32.78;;;;;;;;;;5007725;28;20926;-69
2022/12/14 03:24:57;;;;;;;76.30;40.15;;;;;;;;;;5013382;28;20510;-69
2022/12/14 03:27:34;;;;;;;64.47;33.03;;;;;;;;;;5009826;28;20522;-69
2022/12/14 03:30:02;;;;;;;64.20;32.78;;;;;;;;;;5015918;28;20433;-69
2022/12/14 03:32:30;;;;;;;67.65;36.17;;;;;;;;;;5013806;28;20965;-69
2022/12/14 03:35:01;;;;;;;61.13;33.08;;;;;;;;;;5034656;28;20591;-70
2022/12/14 03:37:47;;;;;;;63.60;33.97;;;;;;;;;;5005276;28;20441;-70
2022/12/14 03:40:14;;;;;;;64.78;35.40;;;;;;;;;;4993468;28;25133;-70
2022/12/14 03:42:46;;;;;;;64.15;33.85;;;;;;;;;;4996311;28;20423;-70
2022/12/14 03:45:26;;;;;;;62.13;32.28;;;;;;;;;;5014039;28;20434;-69
2022/12/14 03:47:52;;;;;;;56.13;30.40;;;;;;;;;;4988341;28;20415;-69
2022/12/14 03:50:37;;;;;;;61.38;31.35;;;;;;;;;;5015678;28;20761;-69
2022/12/14 03:53:07;;;;;;;58.47;31.95;;;;;;;;;;5015588;28;20951;-69
2022/12/14 03:55:54;;;;;;;58.47;31.58;;;;;;;;;;5008561;28;21630;-69
2022/12/14 03:58:23;;;;;;;58.67;31.35;;;;;;;;;;4994216;28;25103;-69
2022/12/14 04:00:57;;;;;;;57.63;31.03;;;;;;;;;;4998686;28;20479;-69
2022/12/14 04:03:42;;;;;;;53.08;30.65;;;;;;;;;;4996896;28;20440;-69
2022/12/14 04:06:26;;;;;;;55.45;30.50;;;-5.30;99.90;;;;;;5001367;28;20491;-68
2022/12/14 04:09:00;;;;;;;56.35;30.38;;;;;;;;;;5012535;28;20494;-70
2022/12/14 04:19:55;;;;;;;53.17;28.77;;;;;;;;;;4975084;28;20512;-70
2022/12/14 04:22:25;;;;;;;53.63;28.88;;;;;;;;;;5014391;28;20995;-70
2022/12/14 04:27:44;;;;;;;50.70;27.30;;;;;;;;;;5005356;28;20510;-70
2022/12/14 04:30:11;;;;;;;49.33;27.47;;;;;;;;;;5013591;28;20472;-70
2022/12/14 04:32:40;;;;;;;50.05;27.20;;;;;;;;;;5003565;28;20933;-68
2022/12/14 04:35:09;;;;;;;49.65;27.30;;;;;;;;;;5005062;28;20837;-69
2022/12/14 04:37:37;;;;;;;50.65;26.50;;;;;;;;;;5010659;28;20965;-69
2022/12/14 04:40:11;;;;;;;50.65;26.65;;;;;;;;;;5010210;28;20851;-70
2022/12/14 04:42:43;;;;;;;47.85;25.95;;;;;;;;;;4994253;28;25096;-70
2022/12/14 04:45:12;;;;;;;47.22;24.77;;;;;;;;;;5011581;28;20436;-70
2022/12/14 04:47:41;;;;;;;47.45;25.70;;;;;;;;;;5002271;28;20442;-70
2022/12/14 04:50:19;;;;;;;44.55;24.73;;;;;;;;;;4984744;28;20423;-70
2022/12/14 04:52:47;;;;;;;48.90;25.10;;;;;;;;;;5018318;28;20457;-70
2022/12/14 04:55:13;;;;;;;46.05;25.92;;;;;;;;;;4997394;28;20494;-70
2022/12/14 04:57:47;;;;;;;46.72;26.38;;;;;;;;;;4995721;28;20512;-70
2022/12/14 05:00:14;;;;;;;48.05;27.08;;;;;;;;;;5008229;28;20961;-68
2022/12/14 05:02:49;;;;;;;49.55;27.08;;;;;;;;;;4994767;28;20436;-68
2022/12/14 05:05:34;;;;;;;52.63;27.88;;;;;;;;;;5013740;28;20512;-68
2022/12/14 05:08:03;;;;;;;51.53;25.73;;;;;;;;;;5001113;28;25110;-69
2022/12/14 05:10:39;;;;;;;52.40;26.67;;;;;;;;;;4994795;28;20435;-70
2022/12/14 05:13:08;;;;;;;52.83;27.45;;;;;;;;;;5012949;28;25110;-70
2022/12/14 05:15:45;;;;;;;52.53;27.23;;;;;;;;;;5031525;28;20441;-70
2022/12/14 05:18:13;;;;;;;52.28;28.55;;;;;;;;;;4996794;28;20951;-70
2022/12/14 05:20:39;;;;;;;50.13;26.90;;;;;;;;;;5000455;28;20907;-70
2022/12/14 05:23:05;;;;;;;51.00;26.83;;;;;;;;;;5013927;28;20505;-71
2022/12/14 05:25:31;;;;;;;54.80;27.98;;;;;;;;;;4982399;28;20420;-70
2022/12/14 05:27:57;;;;;;;51.55;27.40;;;;;;;;;;4990765;28;20440;-70
2022/12/14 05:30:24;;;;;;;57.67;28.93;;;;;;;;;;4982005;28;20467;-70
2022/12/14 05:32:50;;;;;;;57.03;30.52;;;;;;;;;;4996395;28;20427;-70
2022/12/14 05:35:16;;;;;;;54.05;28.60;;;;;;;;;;4997501;28;20403;-70
2022/12/14 05:37:42;;;;;;;54.20;28.40;;;;;;;;;;5011225;28;20510;-70
2022/12/14 05:40:09;;;;;;;59.35;29.13;;;;;;;;;;4979954;28;20498;-70
2022/12/14 05:42:35;;;;;;;57.40;28.13;;;;;;;;;;4978514;28;20423;-69
2022/12/14 05:45:01;;;;;;;58.38;28.23;;;;;;;;;;4985472;28;21799;-70
2022/12/14 05:47:27;;;;;;;56.80;28.20;;;;;;;;;;5008459;28;20938;-70
2022/12/14 05:49:53;;;;;;;53.10;27.88;;;;;;;;;;4997933;28;20438;-69
2022/12/14 05:52:20;;;;;;;54.03;28.42;;;;;;;;;;4979415;28;20431;-69
2022/12/14 05:54:46;;;;;;;56.00;28.23;;;;;;;;;;4994886;28;20427;-69
2022/12/14 05:57:12;;;;;;;52.38;27.77;;;;;;;;;;5002792;28;20432;-69
2022/12/14 05:59:38;;;;;;;52.83;27.55;;;;;;;;;;4991536;28;20434;-69
2022/12/14 06:02:04;;;;;;;53.28;26.73;;;;;;;;;;4997917;28;20514;-69
2022/12/14 06:04:31;;;;;;;52.03;26.58;;;;;;;;;;5002426;28;20452;-70
2022/12/14 06:06:57;;;;;;;58.78;29.20;;;;;;;;;;5005163;28;20472;-70
2022/12/14 06:09:23;;;;;;;58.20;29.65;;;;;;;;;;4978317;28;20416;-69
2022/12/14 06:11:49;;;;;;;52.33;27.92;;;;;;;;;;5008383;28;20506;-70
2022/12/14 06:14:16;;;;;;;57.05;28.35;;;;;;;;;;5010185;28;20922;-70
2022/12/14 06:16:44;;;;;;;52.50;28.08;;;;;;;;;;5003244;28;20414;-70
2022/12/14 06:19:10;;;;;;;54.72;28.20;;;;;;;;;;5007146;28;20473;-69
2022/12/14 06:21:37;;;;;;;52.83;26.90;;;;;;;;;;5011054;28;20416;-70
2022/12/14 06:24:03;;;;;;;52.30;26.85;;;;;;;;;;4984902;28;20423;-70
2022/12/14 06:26:30;;;;;;;50.07;26.53;;;;;;;;;;5008747;28;20432;-68
2022/12/14 06:28:56;;;;;;;52.63;26.00;;;;;;;;;;5006778;28;20445;-68
2022/12/14 06:31:24;;;;;;;51.67;26.63;;;;;;;;;;5012392;28;20898;-70
2022/12/14 06:33:52;;;;;;;53.78;27.20;;;;;;;;;;5009064;28;20427;-70
2022/12/14 06:36:21;;;;;;;53.88;26.83;;;;;;;;;;5006574;28;20423;-70
2022/12/14 06:38:47;;;;;;;53.70;26.08;;;;;;;;;;4986009;28;20437;-69
2022/12/14 06:41:13;;;;;;;50.38;25.55;;;;;;;;;;5013492;28;20423;-70
2022/12/14 06:43:39;;;;;;;49.47;24.92;;;;;;;;;;4993302;28;20434;-69
2022/12/14 06:46:09;;;;;;;49.05;25.80;;;;;;;;;;5008270;28;20418;-69
2022/12/14 06:48:35;;;;;;;49.75;26.10;;;;;;;;;;4984533;28;20563;-69
2022/12/14 06:51:04;;;;;;;51.17;24.90;;;;;;;;;;4998585;28;20786;-68
2022/12/14 06:53:30;;;;;;;49.40;25.10;;;;;;;;;;5019812;28;20453;-68
2022/12/14 06:56:10;;;;;;;58.75;29.23;;;;;;;;;;5005169;28;20447;-68
2022/12/14 06:58:36;;;;;;;55.20;28.40;;;;;;;;;;5006163;28;20427;-69
2022/12/14 07:01:03;;;;;;;49.60;26.58;;;;;;;;;;4979975;28;20428;-69
2022/12/14 07:03:29;;;;;;;53.88;27.25;;;;;;;;;;4998466;28;20408;-70
2022/12/14 07:05:56;;;;;;;54.35;26.25;;;;;;;;;;5011196;28;20415;-70
2022/12/14 07:08:22;;;;;;;49.17;25.98;;;;;;;;;;5013494;28;20876;-70
2022/12/14 07:10:48;;;;;;;51.00;26.90;;;;;;;;;;4997550;28;20426;-70
2022/12/14 07:13:14;;;;;;;51.40;26.03;;;;;;;;;;5014192;28;20457;-70
2022/12/14 07:15:40;;;;;;;53.22;27.83;;;;;;;;;;4975069;28;20916;-70
2022/12/14 07:18:06;;;;;;;51.83;28.05;;;;;;;;;;5027047;28;20430;-70
2022/12/14 07:20:32;;;;;;;57.22;28.27;;;;;;;;;;5011471;28;20435;-70
2022/12/14 07:22:58;;;;;;;54.33;27.27;;;;;;;;;;4981350;28;20431;-70
2022/12/14 07:25:24;;;;;;;50.63;27.00;;;;;;;;;;5005511;28;20529;-70
2022/12/14 07:27:51;;;;;;;51.92;26.92;;;;;;;;;;5012807;28;20520;-71
2022/12/14 07:30:17;;;;;;;53.92;26.70;;;;;;;;;;5014346;28;20446;-71
2022/12/14 07:32:43;;;;;;;54.08;27.50;;;;;;;;;;5010456;28;20419;-70
2022/12/14 07:35:09;;;;;;;54.03;27.77;;;;;;;;;;5001696;28;20431;-69
2022/12/14 07:37:35;;;;;;;54.25;27.52;;;;;;;;;;4982683;28;20474;-70
2022/12/14 07:40:03;;;;;;;53.78;28.02;;;;;;;;;;5000275;28;20439;-70
2022/12/14 07:42:29;;;;;;;54.22;26.98;;;;;;;;;;4995977;28;20511;-69
2022/12/14 07:44:55;;;;;;;54.95;27.27;;;;;;;;;;4999080;28;20794;-69
2022/12/14 07:47:21;;;;;;;56.00;25.88;;;;;;;;;;4992597;28;20560;-69
2022/12/14 07:49:47;;;;;;;55.90;28.85;;;;;;;;;;5026764;28;20434;-70
2022/12/14 07:52:13;;;;;;;50.70;26.52;;;;;;;;;;4978765;28;20439;-70
2022/12/14 07:54:39;;;;;;;54.80;27.63;;;;;;;;;;5011523;28;20463;-70
2022/12/14 07:57:05;;;;;;;54.88;26.60;;;;;;;;;;4979429;28;20438;-69
2022/12/14 07:59:31;;;;;;;56.60;27.23;;;;;;;;;;4985989;28;20421;-70
2022/12/14 08:01:58;;;;;;;54.20;27.33;;;;;;;;;;5016842;28;20585;-69
2022/12/14 08:04:24;;;;;;;51.90;26.38;;;;;;;;;;5017332;28;20407;-69
2022/12/14 08:06:50;;;;;;;57.83;28.90;;;;;;;;;;4994502;28;20430;-69
2022/12/14 08:09:16;;;;;;;63.72;33.47;;;;;;;;;;5004733;28;20770;-69
2022/12/14 08:11:42;;;;;;;62.55;31.35;;;;;;;;;;4995129;28;20424;-69
2022/12/14 08:14:12;;;;;;;60.10;30.23;;;;;;;;;;5008046;28;20434;-69
2022/12/14 08:16:38;;;;;;;59.90;29.67;;;;;;;;;;5006383;28;20431;-70
2022/12/14 08:19:04;;;;;;;55.58;28.15;;;;;;;;;;4989048;28;20437;-70
2022/12/14 08:21:31;;;;;;;58.78;30.40;;;;;;;;;;5005889;28;20429;-71
2022/12/14 08:23:58;;;;;;;61.70;32.70;;;;;;;;;;4997186;28;20421;-71
2022/12/14 08:26:25;;;;;;;60.63;31.63;;;;;;;;;;5004316;28;20418;-70
2022/12/14 08:28:53;;;;;;;60.75;33.00;;;;;;;;;;4990395;28;20437;-70
2022/12/14 08:31:20;;;;;;;60.20;29.73;;;;;;;;;;4971602;28;20419;-70
2022/12/14 08:33:47;;;;;;;58.87;31.43;;;;;;;;;;4995240;28;20426;-70
2022/12/14 08:36:17;;;;;;;93.03;45.97;;;;;;;;;;5008267;28;20438;-70
2022/12/14 08:38:44;;;;;;;93.88;46.25;;;;;;;;;;4994281;28;20428;-72
2022/12/14 08:41:11;;;;;;;64.93;33.15;;;;;;;;;;5001620;28;20522;-70
2022/12/14 08:43:39;;;;;;;58.08;29.70;;;;;;;;;;5009682;28;20416;-70
2022/12/14 08:46:05;;;;;;;59.60;30.10;;;;;;;;;;5010993;28;20505;-70
2022/12/14 08:48:31;;;;;;;61.28;32.55;;;;;;;;;;4991330;28;20434;-70
2022/12/14 08:51:03;;;;;;;62.75;33.92;;;;;;;;;;4986065;28;20428;-70
2022/12/14 08:53:29;;;;;;;60.17;32.85;;;;;;;;;;5000852;28;20440;-70
2022/12/14 08:55:56;;;;;;;63.53;31.48;;;;;;;;;;5006147;28;20992;-70
2022/12/14 08:58:22;;;;;;;58.85;30.08;;;;;;;;;;5002889;28;20434;-70
2022/12/14 09:00:48;;;;;;;59.53;30.37;;;;;;;;;;5001799;28;20424;-71
2022/12/14 09:03:14;;;;;;;55.80;30.35;;;;;;;;;;4979348;28;20421;-71
2022/12/14 09:05:40;;;;;;;61.70;32.50;;;;;;;;;;4994468;28;20911;-69
2022/12/14 09:08:06;;;;;;;60.78;30.98;;;;;;;;;;4993052;28;20478;-71
2022/12/14 09:10:32;;;;;;;61.85;30.27;;;;;;;;;;5004426;28;20487;-70
2022/12/14 09:12:58;;;;;;;61.47;31.20;;;;;;;;;;4993481;28;20433;-70
2022/12/14 09:15:25;;;;;;;61.80;32.08;;;;;;;;;;4996773;28;20440;-71
2022/12/14 09:17:51;;;;;;;66.18;32.33;;;;;;;;;;5007370;28;20482;-70
2022/12/14 09:20:17;;;;;;;57.42;30.63;;;;;;;;;;4995053;28;20926;-70
2022/12/14 09:22:44;;;;;;;64.82;32.83;;;;;;;;;;4994009;28;20412;-70
2022/12/14 09:25:11;;;;;;;60.42;31.13;;;;;;;;;;4984823;28;20421;-71
2022/12/14 09:27:37;;;;;;;57.13;28.90;;;;;;;;;;4996459;28;20462;-71
2022/12/14 09:30:03;;;;;;;52.33;27.48;;;;;;;;;;4994627;28;20423;-72
2022/12/14 09:32:29;;;;;;;57.35;28.52;;;;;;;;;;5007432;28;20443;-71
2022/12/14 09:34:55;;;;;;;53.60;27.53;;;;;;;;;;4999905;28;20502;-71
2022/12/14 09:37:21;;;;;;;55.22;28.15;;;;;;;;;;5003128;28;20420;-72
2022/12/14 09:39:48;;;;;;;52.97;28.10;;;;;;;;;;4981862;28;20421;-72
2022/12/14 09:42:34;;;;;;;56.85;29.20;;;;;;;;;;4987632;28;20816;-72
2022/12/14 09:45:03;;;;;;;60.22;30.00;;;;;;;;;;5022009;28;20460;-72
2022/12/14 09:47:34;;;;;;;62.23;31.80;;;;;;;;;;5005996;28;20772;-72
2022/12/14 09:50:02;;;;;;;53.35;26.17;;;;;;;;;;4990131;28;20456;-71
2022/12/14 09:52:39;;;;;;;59.70;31.27;;;;;;;;;;4998880;28;20519;-71
2022/12/14 09:55:09;;;;;;;48.97;26.25;;;;;;;;;;5002015;28;20420;-78
2022/12/14 09:57:39;;;;;;;49.72;27.02;;;;;;;;;;4985005;28;20773;-79
2022/12/14 10:00:19;;;;;;;42.55;23.38;;;;;;;;;;5004711;28;20506;-79
2022/12/14 10:03:01;;;;;;;44.90;24.80;;;;;;;;;;4986321;28;20850;-79
2022/12/14 10:05:30;;;;;;;45.13;24.93;;;;;;;;;;4987731;28;20423;-78
2022/12/14 10:08:00;;;;;;;43.47;23.87;;;;;;;;;;4987682;28;20774;-78
2022/12/14 10:10:40;;;;;;;43.23;23.70;;;;;;;;;;4999275;28;20422;-78
2022/12/14 10:13:12;;;;;;;44.33;23.73;;;;;;;;;;5011121;28;20413;-78
2022/12/14 10:15:41;;;;;;;44.80;22.77;;;;;;;;;;5009950;28;20474;-78
2022/12/14 10:18:19;;;;;;;46.83;24.45;;;;;;;;;;5005854;28;20439;-78
2022/12/14 10:20:55;;;;;;;40.90;22.25;;;;;;;;;;4987898;28;20504;-76
2022/12/14 10:23:23;;;;;;;40.15;22.80;;;;;;;;;;5005949;28;20510;-77
2022/12/14 10:25:51;;;;;;;38.78;22.08;;;;;;;;;;4993784;28;20423;-77
2022/12/14 10:28:19;;;;;;;41.53;21.90;;;;;;;;;;4987994;28;20968;-78
2022/12/14 10:30:46;;;;;;;40.10;20.88;;;;;;;;;;5005943;28;20435;-78
2022/12/14 10:33:23;;;;;;;40.75;22.38;;;;;;;;;;5010657;28;20501;-79
2022/12/14 10:35:50;;;;;;;40.97;22.40;;;;;;;;;;4996952;28;20439;-78
2022/12/14 10:38:35;;;;;;;38.50;21.10;;;;;;;;;;4994637;28;20427;-77
2022/12/14 10:41:27;;;;;;;36.85;20.73;;;;;;;;;;4993386;28;21026;-77
2022/12/14 10:44:09;;;;;;;37.20;20.60;;;;;;;;;;5003509;28;21153;-75
2022/12/14 10:46:41;;;;;;;38.60;21.48;;;;;;;;;;4987297;28;20426;-76
2022/12/14 10:49:10;;;;;;;39.40;21.77;;;;;;;;;;5006212;28;20466;-78
2022/12/14 10:51:49;;;;;;;35.30;20.45;;;;;;;;;;4999142;28;20521;-78
2022/12/14 10:54:32;;;;;;;33.67;18.47;;;;;;;;;;5011762;28;20512;-78
2022/12/14 10:56:58;;;;;;;32.67;17.67;;;;;;;;;;4986886;28;20428;-77
2022/12/14 10:59:29;;;;;;;31.05;17.98;;;;;;;;;;5017226;28;20439;-77
2022/12/14 11:02:03;;;;;;;34.35;18.45;;;;;;;;;;5005777;28;20436;-76
2022/12/14 11:04:29;;;;;;;33.35;18.90;;;;;;;;;;4998677;28;20404;-76
2022/12/14 11:06:57;;;;;;;32.83;18.63;;;;;;;;;;5007519;28;20424;-76
2022/12/14 11:09:23;;;;;;;38.63;20.92;;;;;;;;;;5009526;28;20436;-77
2022/12/14 11:11:54;;;;;;;33.63;19.23;;;;;;;;;;5021096;28;20537;-77
2022/12/14 11:14:21;;;;;;;33.53;19.17;;;;;;;;;;5027249;28;21078;-77
2022/12/14 11:16:48;;;;;;;35.63;20.27;;;;;;;;;;5006747;28;20509;-77
2022/12/14 11:19:16;;;;;;;34.67;19.20;;;;;;;;;;5011866;28;20495;-77
2022/12/14 11:21:43;;;;;;;39.05;19.33;;;;;;;;;;5017747;28;20427;-77
2022/12/14 11:24:20;;;;;;;32.35;17.90;;;;;;;;;;5011574;28;20434;-77
2022/12/14 11:26:47;;;;;;;33.75;19.33;;;;;;;;;;4995944;28;20485;-77
2022/12/14 11:29:18;;;;;;;33.35;18.90;;;;;;;;;;4988655;28;20456;-77
2022/12/14 11:31:46;;;;;;;33.90;18.60;;;;;;;;;;4999911;28;20476;-79
2022/12/14 11:34:26;;;;;;;35.13;19.10;;;;;;;;;;5007102;28;20430;-77
2022/12/14 11:36:52;;;;;;;36.53;19.55;;;;;;;;;;4981941;28;20431;-78
2022/12/14 11:39:25;;;;;;;35.17;19.60;;;;;;;;;;5012886;28;20428;-76
2022/12/14 11:41:57;;;;;;;36.97;19.98;;;;;;;;;;5003541;28;20429;-78
2022/12/14 11:44:28;;;;;;;35.92;20.42;;;;;;;;;;5002179;28;20574;-78
2022/12/14 11:46:57;;;;;;;34.45;20.17;;;;;;;;;;5004267;28;20419;-78
2022/12/14 11:49:25;;;;;;;33.67;20.02;;;;;;;;;;5000019;28;20436;-79
2022/12/14 11:52:17;;;;;;;33.85;18.70;;;;;;;;;;4992813;28;20471;-78
2022/12/14 11:54:44;;;;;;;32.42;18.73;;;;;;;;;;4984159;28;20424;-77
2022/12/14 11:57:13;;;;;;;34.13;18.55;;;;;;;;;;5008402;28;20446;-78
2022/12/14 11:59:44;;;;;;;31.83;18.35;;;;;;;;;;5011457;28;20428;-78
2022/12/14 12:02:30;;;;;;;30.38;17.92;;;;;;;;;;5005197;28;20467;-80
2022/12/14 12:04:59;;;;;;;28.95;17.67;;;;;;;;;;5010971;28;20405;-79
2022/12/14 12:07:28;;;;;;;29.75;17.15;;;;;;;;;;4993810;28;20841;-77
2022/12/14 12:09:55;;;;;;;28.92;16.60;;;;;;;;;;5004728;28;20427;-78
2022/12/14 12:12:21;;;;;;;27.40;16.88;;;;;;;;;;4998541;28;20433;-79
2022/12/14 12:14:52;;;;;;;29.50;16.27;;;;;;;;;;4998834;28;20434;-79
2022/12/14 12:17:35;;;;;;;28.52;17.38;;;;;;;;;;4998875;28;20430;-77
2022/12/14 12:20:02;;;;;;;32.03;16.90;;;;;;;;;;4998725;28;20426;-80
2022/12/14 12:22:30;;;;;;;28.08;16.10;;;;;;;;;;4985075;28;20430;-79
2022/12/14 12:24:58;;;;;;;29.50;17.25;;;;;;;;;;5010077;28;20530;-79
2022/12/14 12:27:25;;;;;;;30.80;17.00;;;;;;;;;;4999392;28;20545;-80
2022/12/14 12:29:56;;;;;;;27.33;14.13;;;;;;;;;;5012324;28;20445;-80
2022/12/14 12:32:28;;;;;;;31.57;15.67;;;;;;;;;;4991923;28;20428;-78
2022/12/14 12:34:57;;;;;;;25.25;14.30;;;;;;;;;;5000782;28;20478;-80
2022/12/14 12:37:43;;;;;;;27.05;15.30;;;-0.50;99.90;;;;;;5000468;28;20419;-80
2022/12/14 12:40:15;;;;;;;28.45;16.27;;;;;;;;;;5002013;28;20440;-79
2022/12/14 12:42:51;;;;;;;27.55;15.40;;;;;;;;;;4994521;28;20499;-80
2022/12/14 12:45:23;;;;;;;27.02;15.38;;;;;;;;;;4997418;28;20516;-81
2022/12/14 12:47:52;;;;;;;28.52;16.30;;;;;;;;;;5004941;28;20416;-81
2022/12/14 12:50:21;;;;;;;30.02;16.10;;;;;;;;;;5006429;28;20467;-79
2022/12/14 12:53:05;;;;;;;32.20;17.30;;;;;;;;;;5006601;28;20784;-80
2022/12/14 12:55:32;;;;;;;29.57;15.97;;;;;;;;;;4998455;28;20495;-80
2022/12/14 12:58:01;;;;;;;29.00;15.73;;;;;;;;;;5008399;28;20441;-82
2022/12/14 13:00:29;;;;;;;30.40;15.60;;;;;;;;;;4999585;28;22294;-81
2022/12/14 13:03:07;;;;;;;27.25;15.65;;;;;;;;;;5014644;28;20415;-80
2022/12/14 13:05:34;;;;;;;26.77;16.33;;;;;;;;;;4992925;28;20423;-81
2022/12/14 13:08:07;;;;;;;28.30;15.63;;;;;;;;;;4990851;28;20431;-82
2022/12/14 13:10:37;;;;;;;24.80;13.75;;;;;;;;;;5005493;28;20500;-81
2022/12/14 13:13:06;;;;;;;24.60;13.48;;;;;;;;;;4986359;28;20480;-81
2022/12/14 13:15:35;;;;;;;19.08;11.50;;;;;;;;;;5001150;28;20675;-81
2022/12/14 13:18:12;;;;;;;21.87;12.73;;;;;;;;;;4997692;28;20425;-81
2022/12/14 13:20:38;;;;;;;24.88;14.18;;;;;;;;;;4990605;28;20435;-80
2022/12/14 13:23:04;;;;;;;22.40;12.98;;;;;;;;;;4999369;28;20518;-80
2022/12/14 13:25:37;;;;;;;24.02;13.65;;;;;;;;;;4995845;28;20425;-81
2022/12/14 13:28:03;;;;;;;23.48;13.55;;;;;;;;;;4975999;28;20443;-82
2022/12/14 13:30:44;;;;;;;24.42;13.45;;;;;;;;;;4997396;28;20507;-80
2022/12/14 13:33:18;;;;;;;24.75;13.82;;;;;;;;;;5004000;28;20430;-81
2022/12/14 13:35:59;;;;;;;31.13;13.88;;;;;;;;;;5011054;28;20427;-81
2022/12/14 13:38:25;;;;;;;23.25;13.77;;;;;;;;;;4998507;28;20415;-81
2022/12/14 13:40:57;;;;;;;23.40;13.63;;;;;;;;;;4991791;28;20664;-81
2022/12/14 13:43:54;;;;;;;23.75;14.60;;;-0.20;99.90;;;;;;4996798;28;22108;-80
2022/12/14 13:46:22;;;;;;;25.48;14.98;;;;;;;;;;5009610;28;20407;-80
2022/12/14 13:48:50;;;;;;;23.98;14.45;;;;;;;;;;5014158;28;20499;-80
2022/12/14 13:51:22;;;;;;;25.88;14.80;;;;;;;;;;5022724;28;20918;-81
2022/12/14 13:53:53;;;;;;;27.02;14.35;;;;;;;;;;5004425;28;20431;-79
2022/12/14 13:56:24;;;;;;;24.02;14.10;;;;;;;;;;5000615;28;20438;-80
2022/12/14 13:58:50;;;;;;;27.17;14.63;;;;;;;;;;5008371;28;20453;-80
2022/12/14 14:01:29;;;;;;;24.25;14.07;;;;;;;;;;4999315;28;20950;-82
2022/12/14 14:04:15;;;;;;;25.43;14.40;;;;;;;;;;5013220;28;20456;-81
2022/12/14 14:06:51;;;;;;;27.30;14.18;;;;;;;;;;4972711;28;20629;-83
2022/12/14 14:09:37;;;;;;;26.17;14.25;;;;;;;;;;4990023;28;20419;-80
2022/12/14 14:12:33;;;;;;;25.73;14.30;;;-0.20;99.90;;;;;;4988053;28;20506;-80
2022/12/14 14:15:11;;;;;;;24.48;14.25;;;;;;;;;;5003717;28;20496;-80
2022/12/14 14:17:48;;;;;;;25.27;14.25;;;;;;;;;;5004170;28;20492;-78
2022/12/14 14:20:23;;;;;;;25.05;14.65;;;;;;;;;;4988022;28;20440;-80
2022/12/14 14:23:08;;;;;;;23.95;14.02;;;;;;;;;;4998455;28;20432;-78
2022/12/14 14:25:34;;;;;;;23.27;13.80;;;;;;;;;;5000483;28;20523;-81
2022/12/14 14:28:00;;;;;;;25.15;14.38;;;;;;;;;;5012392;28;20431;-80
2022/12/14 14:30:37;;;;;;;23.10;13.87;;;;;;;;;;5002621;28;20810;-78
2022/12/14 14:33:24;;;;;;;29.40;14.50;;;;;;;;;;4992290;28;20469;-80
2022/12/14 14:35:50;;;;;;;23.58;14.05;;;;;;;;;;4991538;28;20429;-79
2022/12/14 14:38:27;;;;;;;23.17;13.23;;;;;;;;;;5010127;28;20853;-79
2022/12/14 14:40:56;;;;;;;22.60;13.82;;;;;;;;;;4982130;28;20932;-79
2022/12/14 14:43:22;;;;;;;26.25;14.00;;;;;;;;;;5005570;28;20914;-80